Etihad Airways Virtual Airport Information Service

Medina Prince Mohammad bin Abdulaziz Airport

ICAO: OEMA Country: Saudi Arabia
Latitude: 24.5534 Longitude: 39.7051
Latest Arrival : SVA2121 (2) (DAAG-OEMA) Latest Departure : SVA504 (OEMA-OKBK)


WX CaptureLIVE
Data provided by noaa.gov | Recorded at 22:27:28

METAR : OEMA 012200Z 24006KT CAVOK 34/10 Q1013 NOSIG

TAF : OEMA 011700Z 0118/0224 VRB03KT 8000 FEW045 BECMG 0206/0208 12012KT


Runway Data for OEMA
Data provided by openaviationdata.com

Runway ID Mag Var Hdg Length Elevation Surface ILS Freq ILS Id ILS Slope

Medina Prince Mohammad bin Abdulaziz Airport, Saudi Arabia
Use only for reference purposes